createdAt,value
2023-04-27T00:01:50.343Z,27.30
2023-04-27T00:04:24.122Z,27.30
2023-04-27T00:06:54.108Z,27.30
2023-04-27T00:09:24.645Z,27.30
2023-04-27T00:11:54.658Z,27.30
2023-04-27T00:14:24.321Z,27.30
2023-04-27T00:16:54.140Z,27.30
2023-04-27T00:19:24.262Z,27.30
2023-04-27T00:21:54.130Z,27.30
2023-04-27T00:24:23.730Z,27.30
2023-04-27T00:26:53.793Z,27.40
2023-04-27T00:29:23.430Z,27.50
2023-04-27T00:31:53.564Z,27.50
2023-04-27T00:34:25.085Z,27.50
2023-04-27T00:36:55.114Z,27.60
2023-04-27T00:39:24.735Z,27.70
2023-04-27T00:41:54.578Z,27.70
2023-04-27T00:44:28.290Z,27.90
2023-04-27T00:47:00.286Z,27.90
2023-04-27T00:49:30.569Z,28.00
2023-04-27T00:52:00.378Z,28.10
2023-04-27T00:54:30.860Z,28.10
2023-04-27T00:57:01.100Z,28.10
2023-04-27T00:59:31.568Z,28.10
2023-04-27T01:02:02.429Z,28.10
2023-04-27T01:04:33.726Z,28.20
2023-04-27T01:07:04.300Z,28.30
2023-04-27T01:09:35.069Z,28.50
2023-04-27T01:12:05.302Z,28.50
2023-04-27T01:14:35.087Z,28.50
2023-04-27T01:17:05.022Z,28.60
2023-04-27T01:19:34.719Z,28.60
2023-04-27T01:22:04.734Z,28.60
2023-04-27T01:24:34.538Z,28.60
2023-04-27T01:27:07.844Z,28.70
2023-04-27T01:29:39.800Z,28.70
2023-04-27T01:32:12.049Z,28.70
2023-04-27T01:34:42.021Z,28.80
2023-04-27T01:37:11.831Z,28.90
2023-04-27T01:39:42.007Z,29.00
2023-04-27T01:42:12.297Z,29.00
2023-04-27T01:44:42.651Z,29.00
2023-04-27T01:47:12.354Z,29.10
2023-04-27T01:49:43.025Z,29.10
2023-04-27T01:52:12.669Z,29.10
2023-04-27T01:54:42.556Z,29.20
2023-04-27T01:57:13.540Z,29.20
2023-04-27T01:59:43.872Z,29.40
2023-04-27T02:02:13.922Z,29.50
2023-04-27T02:04:44.768Z,29.60
2023-04-27T02:07:14.617Z,29.70
2023-04-27T02:09:44.981Z,29.80
2023-04-27T02:12:16.945Z,29.60
2023-04-27T02:14:46.961Z,29.60
2023-04-27T02:17:16.742Z,29.50
2023-04-27T02:19:48.341Z,29.60
2023-04-27T02:22:18.940Z,29.60
2023-04-27T02:24:49.044Z,29.50
2023-04-27T02:27:19.225Z,29.50
2023-04-27T02:29:49.416Z,29.40
2023-04-27T02:32:19.935Z,29.50
2023-04-27T02:34:50.069Z,29.40
2023-04-27T02:37:21.314Z,29.40
2023-04-27T02:39:52.145Z,29.50
2023-04-27T02:42:22.519Z,29.60
2023-04-27T02:44:52.618Z,29.80
2023-04-27T02:47:22.353Z,29.90
2023-04-27T02:49:52.227Z,30.00
2023-04-27T02:52:22.396Z,29.90
2023-04-27T02:54:52.474Z,29.90
2023-04-27T02:57:22.299Z,30.30
2023-04-27T02:59:52.392Z,30.50
2023-04-27T03:02:22.136Z,30.70
2023-04-27T03:04:56.746Z,31.00
2023-04-27T03:07:26.785Z,30.90
2023-04-27T03:09:57.166Z,30.70
2023-04-27T03:12:27.000Z,30.50
2023-04-27T03:14:56.886Z,30.80
2023-04-27T03:17:27.463Z,31.00
2023-04-27T03:19:57.442Z,31.20
2023-04-27T03:22:28.402Z,31.30
2023-04-27T03:24:58.610Z,31.10
2023-04-27T03:27:28.329Z,31.10
2023-04-27T03:29:58.162Z,31.50
2023-04-27T03:32:28.278Z,31.60
2023-04-27T03:34:58.991Z,31.50
2023-04-27T03:37:29.289Z,31.70
2023-04-27T03:39:59.944Z,31.80
2023-04-27T03:42:30.925Z,32.20
2023-04-27T03:45:01.078Z,32.20
2023-04-27T03:47:30.802Z,32.30
2023-04-27T03:50:01.099Z,32.40
2023-04-27T03:52:30.807Z,32.50
2023-04-27T03:55:01.070Z,32.50
2023-04-27T03:57:30.787Z,32.40
2023-04-27T04:00:01.100Z,32.50
2023-04-27T04:02:30.925Z,32.60
2023-04-27T04:05:01.400Z,32.80
2023-04-27T04:07:31.279Z,32.90
2023-04-27T04:10:01.855Z,32.90
2023-04-27T04:12:32.662Z,33.00
2023-04-27T04:15:03.220Z,33.00
2023-04-27T04:17:35.424Z,33.10
2023-04-27T04:20:10.329Z,33.00
2023-04-27T04:22:40.765Z,33.30
2023-04-27T04:25:10.724Z,33.40
2023-04-27T04:27:40.828Z,33.40
2023-04-27T04:30:11.130Z,33.40
2023-04-27T04:32:41.786Z,33.40
2023-04-27T04:35:12.822Z,33.50
2023-04-27T04:37:42.961Z,33.60
2023-04-27T04:40:14.240Z,33.70
2023-04-27T04:42:44.719Z,33.90
2023-04-27T04:45:14.318Z,33.70
2023-04-27T04:47:44.214Z,34.00
2023-04-27T04:50:14.576Z,34.00
2023-04-27T04:52:44.679Z,34.20
2023-04-27T04:55:14.798Z,34.10
2023-04-27T04:57:44.761Z,34.20
2023-04-27T05:00:15.237Z,34.10
2023-04-27T05:02:45.283Z,34.20
2023-04-27T05:05:15.161Z,34.40
2023-04-27T05:07:45.024Z,34.40
2023-04-27T05:10:15.450Z,34.30
2023-04-27T05:12:46.150Z,34.60
2023-04-27T05:15:15.938Z,34.70
2023-04-27T05:17:45.980Z,34.70
2023-04-27T05:20:16.128Z,34.80
2023-04-27T05:22:46.060Z,34.80
2023-04-27T05:25:15.686Z,34.70
2023-04-27T05:27:45.507Z,34.70
2023-04-27T05:30:15.761Z,34.70
2023-04-27T05:32:45.886Z,34.90
2023-04-27T05:35:15.601Z,35.00
2023-04-27T05:37:45.401Z,35.10
2023-04-27T05:40:16.826Z,35.20
2023-04-27T05:42:51.148Z,35.40
2023-04-27T05:45:21.221Z,35.60
2023-04-27T05:47:50.985Z,35.60
2023-04-27T05:50:21.106Z,35.60
2023-04-27T05:52:50.775Z,35.50
2023-04-27T05:55:20.857Z,35.40
2023-04-27T05:58:00.579Z,35.20
2023-04-27T06:00:38.091Z,35.20
2023-04-27T06:03:08.252Z,35.50
2023-04-27T06:05:38.317Z,35.60
2023-04-27T06:08:08.626Z,35.60
2023-04-27T06:10:39.193Z,35.50
2023-04-27T06:13:09.328Z,35.70
2023-04-27T06:15:38.987Z,35.40
2023-04-27T06:18:08.917Z,35.60
2023-04-27T06:20:38.665Z,35.90
2023-04-27T06:23:08.716Z,35.80
2023-04-27T06:25:40.473Z,36.00
2023-04-27T06:28:10.552Z,36.20
2023-04-27T06:30:40.237Z,36.20
2023-04-27T06:33:11.006Z,36.10
2023-04-27T06:35:40.644Z,36.00
2023-04-27T06:38:10.676Z,35.80
2023-04-27T06:40:40.307Z,35.60
2023-04-27T06:43:10.235Z,35.50
2023-04-27T06:45:39.879Z,35.70
2023-04-27T06:48:09.943Z,36.00
2023-04-27T06:50:39.676Z,35.70
2023-04-27T06:53:10.190Z,35.60
2023-04-27T06:55:41.672Z,35.60
2023-04-27T06:58:14.445Z,36.00
2023-04-27T07:00:44.206Z,36.10
2023-04-27T07:03:14.547Z,36.00
2023-04-27T07:05:44.855Z,35.80
2023-04-27T07:08:14.854Z,35.80
2023-04-27T07:10:45.590Z,35.60
2023-04-27T07:13:15.880Z,35.60
2023-04-27T07:15:45.663Z,35.60
2023-04-27T07:18:15.625Z,35.50
2023-04-27T07:20:45.516Z,35.40
2023-04-27T07:23:15.456Z,35.30
2023-04-27T07:25:46.924Z,35.40
2023-04-27T07:28:16.907Z,35.40
2023-04-27T07:30:47.160Z,35.00
2023-04-27T07:33:17.556Z,35.00
2023-04-27T07:35:47.567Z,35.00
2023-04-27T07:38:18.919Z,34.80
2023-04-27T07:40:49.081Z,34.90
2023-04-27T07:43:19.832Z,34.90
2023-04-27T07:45:51.059Z,34.90
2023-04-27T07:48:21.091Z,35.00
2023-04-27T07:50:51.293Z,35.00
2023-04-27T07:53:21.232Z,34.90
2023-04-27T07:55:51.058Z,34.90
2023-04-27T07:58:21.417Z,35.00
2023-04-27T08:00:51.333Z,34.90
2023-04-27T08:03:21.244Z,34.80
2023-04-27T08:05:51.846Z,34.70
2023-04-27T08:08:21.921Z,34.70
2023-04-27T08:10:52.631Z,34.60
2023-04-27T08:13:23.719Z,34.60
2023-04-27T08:16:00.234Z,34.70
2023-04-27T08:18:30.614Z,34.80
2023-04-27T08:21:00.568Z,34.80
2023-04-27T08:23:32.748Z,34.60
2023-04-27T08:26:02.843Z,34.60
2023-04-27T08:28:33.281Z,34.60
2023-04-27T08:31:03.352Z,34.40
2023-04-27T08:33:33.438Z,34.60
2023-04-27T08:36:03.519Z,34.60
2023-04-27T08:38:35.165Z,34.40
2023-04-27T08:41:20.359Z,34.50
2023-04-27T08:43:53.333Z,34.50
2023-04-27T08:46:25.642Z,34.50
2023-04-27T08:48:56.508Z,34.40
2023-04-27T08:51:29.022Z,34.20
2023-04-27T08:54:00.098Z,34.20
2023-04-27T08:56:32.124Z,34.10
2023-04-27T08:59:05.870Z,34.20
2023-04-27T09:01:36.457Z,34.20
2023-04-27T09:04:09.499Z,34.30
2023-04-27T09:06:39.711Z,34.30
2023-04-27T09:09:10.219Z,34.30
2023-04-27T09:11:42.252Z,34.30
2023-04-27T09:14:23.324Z,34.30
2023-04-27T09:17:02.355Z,34.20
2023-04-27T09:19:33.036Z,34.10
2023-04-27T09:22:11.336Z,34.10
2023-04-27T09:24:51.762Z,34.10
2023-04-27T09:27:23.310Z,34.10
2023-04-27T09:29:54.044Z,34.00
2023-04-27T09:32:23.805Z,33.90
2023-04-27T09:34:53.856Z,34.00
2023-04-27T09:37:24.875Z,34.00
2023-04-27T09:39:55.096Z,34.00
2023-04-27T09:42:25.156Z,34.00
2023-04-27T09:44:56.105Z,34.00
2023-04-27T09:47:27.000Z,34.00
2023-04-27T09:49:57.480Z,33.90
2023-04-27T09:52:27.828Z,34.00
2023-04-27T09:55:00.975Z,34.00
2023-04-27T09:57:56.925Z,33.80
2023-04-27T10:00:56.729Z,33.70
2023-04-27T10:04:06.569Z,33.70
2023-04-27T10:07:03.501Z,33.80
2023-04-27T10:09:53.763Z,33.80
2023-04-27T10:12:44.464Z,33.80
2023-04-27T10:15:18.194Z,33.80
2023-04-27T10:18:00.483Z,33.70
2023-04-27T10:20:35.445Z,33.80
2023-04-27T10:23:06.897Z,33.80
2023-04-27T10:25:42.135Z,33.70
2023-04-27T10:28:19.068Z,33.80
2023-04-27T10:30:50.571Z,33.80
2023-04-27T10:33:24.217Z,33.80
2023-04-27T10:36:01.925Z,33.80
2023-04-27T10:38:32.936Z,33.80
2023-04-27T10:41:06.438Z,33.90
2023-04-27T10:43:39.452Z,33.90
2023-04-27T10:46:13.280Z,33.80
2023-04-27T10:48:46.874Z,33.80
2023-04-27T10:51:23.007Z,33.80
2023-04-27T10:53:55.450Z,33.80
2023-04-27T10:56:26.366Z,33.80
2023-04-27T10:58:56.152Z,33.80
2023-04-27T11:01:28.247Z,33.80
2023-04-27T11:04:02.705Z,33.70
2023-04-27T11:06:45.446Z,33.60
2023-04-27T11:09:16.487Z,33.70
2023-04-27T11:11:47.683Z,33.70
2023-04-27T11:14:23.844Z,33.80
2023-04-27T11:16:53.914Z,33.70
2023-04-27T11:19:23.648Z,33.60
2023-04-27T11:21:53.935Z,33.50
2023-04-27T11:24:23.668Z,33.50
2023-04-27T11:26:56.590Z,33.50
2023-04-27T11:29:27.402Z,33.50
2023-04-27T11:31:57.733Z,33.40
2023-04-27T11:34:37.765Z,33.40
2023-04-27T11:39:43.151Z,33.30
2023-04-27T11:42:33.113Z,33.20
2023-04-27T11:45:07.357Z,33.20
2023-04-27T11:47:37.838Z,33.10
2023-04-27T11:50:10.011Z,33.20
2023-04-27T11:52:44.414Z,33.30
2023-04-27T11:55:17.390Z,33.30
2023-04-27T11:57:47.544Z,33.30
2023-04-27T12:00:18.068Z,33.20
2023-04-27T12:02:48.467Z,33.20
2023-04-27T12:05:18.761Z,33.20
2023-04-27T12:07:49.123Z,33.10
2023-04-27T12:10:18.923Z,33.10
2023-04-27T12:12:48.794Z,33.10
2023-04-27T12:15:18.723Z,33.10
2023-04-27T12:17:49.256Z,33.00
2023-04-27T12:20:19.242Z,33.00
2023-04-27T12:22:49.071Z,33.00
2023-04-27T12:25:19.715Z,33.20
2023-04-27T12:27:50.872Z,33.20
2023-04-27T12:30:21.174Z,33.20
2023-04-27T12:32:52.453Z,33.10
2023-04-27T12:35:22.551Z,33.10
2023-04-27T12:37:52.384Z,33.00
2023-04-27T12:40:24.682Z,33.00
2023-04-27T12:42:54.576Z,32.30
2023-04-27T12:45:24.270Z,31.80
2023-04-27T12:48:03.298Z,31.40
2023-04-27T12:50:35.296Z,31.00
2023-04-27T12:53:05.389Z,30.80
2023-04-27T12:55:35.001Z,30.70
2023-04-27T12:58:06.318Z,30.60
2023-04-27T13:00:36.770Z,30.60
2023-04-27T13:03:08.300Z,30.60
2023-04-27T13:05:38.628Z,30.60
2023-04-27T13:08:08.418Z,30.60
2023-04-27T13:10:39.065Z,30.60
2023-04-27T13:13:09.335Z,30.50
2023-04-27T13:15:40.111Z,30.70
2023-04-27T13:18:10.342Z,30.90
2023-04-27T13:20:40.685Z,31.00
2023-04-27T13:23:10.404Z,30.50
2023-04-27T13:25:40.864Z,30.40
2023-04-27T13:28:10.635Z,30.50
2023-04-27T13:30:40.936Z,30.30
2023-04-27T13:33:22.507Z,30.30
2023-04-27T13:35:53.841Z,30.10
2023-04-27T13:38:23.574Z,30.00
2023-04-27T13:40:53.564Z,30.20
2023-04-27T13:43:23.300Z,30.30
2023-04-27T13:45:56.464Z,30.50
2023-04-27T13:48:27.529Z,30.40
2023-04-27T13:50:57.481Z,30.30
2023-04-27T13:53:27.992Z,30.20
2023-04-27T13:55:59.266Z,30.40
2023-04-27T13:58:33.519Z,30.60
2023-04-27T14:01:03.626Z,30.40
2023-04-27T14:03:35.172Z,29.90
2023-04-27T14:06:05.578Z,29.80
2023-04-27T14:08:35.406Z,29.90
2023-04-27T14:11:05.339Z,29.60
2023-04-27T14:13:35.040Z,29.70
2023-04-27T14:16:05.153Z,29.50
2023-04-27T14:18:35.073Z,29.60
2023-04-27T14:21:06.001Z,29.60
2023-04-27T14:23:37.008Z,29.80
2023-04-27T14:26:09.130Z,29.90
2023-04-27T14:28:39.542Z,29.70
2023-04-27T14:31:09.687Z,29.70
2023-04-27T14:33:39.598Z,29.50
2023-04-27T14:36:09.464Z,29.70
2023-04-27T14:38:39.504Z,29.80
2023-04-27T14:41:10.174Z,30.00
2023-04-27T14:43:40.437Z,30.20
2023-04-27T14:46:20.213Z,29.60
2023-04-27T14:48:51.281Z,29.60
2023-04-27T14:51:24.385Z,29.60
2023-04-27T14:53:54.817Z,29.20
2023-04-27T14:56:25.629Z,29.30
2023-04-27T14:58:56.801Z,29.70
2023-04-27T15:01:26.833Z,29.40
2023-04-27T15:03:58.201Z,29.30
2023-04-27T15:06:31.870Z,29.60
2023-04-27T15:09:01.763Z,29.30
2023-04-27T15:11:31.461Z,29.10
2023-04-27T15:14:01.476Z,29.30
2023-04-27T15:16:32.387Z,29.10
2023-04-27T15:19:02.652Z,29.20
2023-04-27T15:21:33.757Z,29.40
2023-04-27T15:24:03.818Z,29.60
2023-04-27T15:26:33.506Z,29.40
2023-04-27T15:29:03.540Z,29.00
2023-04-27T15:31:33.296Z,28.80
2023-04-27T15:34:03.476Z,28.70
2023-04-27T15:36:33.851Z,28.70
2023-04-27T15:39:03.725Z,28.80
2023-04-27T15:41:33.683Z,28.80
2023-04-27T15:44:03.425Z,28.70
2023-04-27T15:46:33.552Z,28.80
2023-04-27T15:49:03.349Z,28.90
2023-04-27T15:51:33.831Z,28.80
2023-04-27T15:54:03.656Z,28.70
2023-04-27T15:56:33.928Z,28.60
2023-04-27T15:59:03.654Z,28.60
2023-04-27T16:01:33.727Z,28.70
2023-04-27T16:04:03.927Z,28.60
2023-04-27T16:06:36.218Z,28.60
2023-04-27T16:09:08.341Z,28.60
2023-04-27T16:11:40.174Z,28.60
2023-04-27T16:14:10.259Z,28.50
2023-04-27T16:16:40.724Z,28.40
2023-04-27T16:19:11.626Z,28.00
2023-04-27T16:21:41.681Z,28.10
2023-04-27T16:24:11.471Z,28.30
2023-04-27T16:26:41.335Z,28.40
2023-04-27T16:29:10.956Z,28.50
2023-04-27T16:31:41.176Z,28.30
2023-04-27T16:34:10.906Z,28.30
2023-04-27T16:36:40.724Z,28.40
2023-04-27T16:39:11.067Z,28.40
2023-04-27T16:41:40.970Z,28.40
2023-04-27T16:44:10.660Z,28.50
2023-04-27T16:46:40.509Z,28.40
2023-04-27T16:49:12.567Z,28.40
2023-04-27T16:51:42.790Z,28.10
2023-04-27T16:54:12.605Z,28.10
2023-04-27T16:56:42.484Z,28.10
2023-04-27T16:59:15.452Z,28.20
2023-04-27T17:01:45.609Z,28.20
2023-04-27T17:04:15.373Z,28.30
2023-04-27T17:06:48.369Z,28.30
2023-04-27T17:09:18.339Z,28.10
2023-04-27T17:11:48.024Z,27.80
2023-04-27T17:14:17.839Z,27.60
2023-04-27T17:16:48.306Z,27.80
2023-04-27T17:19:18.260Z,27.90
2023-04-27T17:21:48.030Z,28.00
2023-04-27T17:24:17.915Z,28.00
2023-04-27T17:26:48.412Z,27.90
2023-04-27T17:29:18.671Z,28.00
2023-04-27T17:31:48.724Z,28.10
2023-04-27T17:34:18.775Z,28.00
2023-04-27T17:36:48.498Z,28.10
2023-04-27T17:39:18.767Z,28.00
2023-04-27T17:41:48.460Z,28.00
2023-04-27T17:44:18.626Z,27.80
2023-04-27T17:46:52.861Z,28.00
2023-04-27T17:49:22.914Z,28.10
2023-04-27T17:51:52.622Z,28.10
2023-04-27T17:54:22.993Z,28.20
2023-04-27T17:56:52.671Z,28.20
2023-04-27T17:59:22.791Z,28.10
2023-04-27T18:01:52.739Z,28.00
2023-04-27T18:04:23.196Z,28.00
2023-04-27T18:06:53.015Z,28.00
2023-04-27T18:09:23.180Z,28.00
2023-04-27T18:11:52.869Z,28.00
2023-04-27T18:14:22.668Z,28.10
2023-04-27T18:16:53.109Z,27.90
2023-04-27T18:19:23.205Z,27.90
2023-04-27T18:21:52.872Z,27.80
2023-04-27T18:24:22.700Z,27.50
2023-04-27T18:26:52.564Z,27.50
2023-04-27T18:29:22.898Z,27.50
2023-04-27T18:31:52.946Z,27.60
2023-04-27T18:34:23.069Z,27.40
2023-04-27T18:36:52.708Z,27.60
2023-04-27T18:39:23.477Z,27.70
2023-04-27T18:41:53.598Z,27.50
2023-04-27T18:44:23.284Z,27.40
2023-04-27T18:46:53.422Z,27.60
2023-04-27T18:49:23.331Z,27.90
2023-04-27T18:51:53.234Z,27.90
2023-04-27T18:54:23.222Z,27.90
2023-04-27T18:56:55.092Z,27.80
2023-04-27T18:59:25.062Z,27.90
2023-04-27T19:01:55.553Z,28.00
2023-04-27T19:04:27.389Z,28.00
2023-04-27T19:06:57.381Z,28.00
2023-04-27T19:09:27.119Z,27.90
2023-04-27T19:12:02.815Z,27.80
2023-04-27T19:14:33.911Z,27.80
2023-04-27T19:17:04.994Z,27.90
2023-04-27T19:19:34.976Z,27.90
2023-04-27T19:22:05.106Z,27.90
2023-04-27T19:24:34.893Z,27.90
2023-04-27T19:27:04.529Z,27.70
2023-04-27T19:29:49.374Z,27.50
2023-04-27T19:32:19.348Z,27.20
2023-04-27T19:34:49.306Z,27.50
2023-04-27T19:37:19.386Z,27.50
2023-04-27T19:39:49.251Z,27.60
2023-04-27T19:42:19.330Z,27.70
2023-04-27T19:44:48.914Z,27.70
2023-04-27T19:47:18.762Z,27.70
2023-04-27T19:49:48.412Z,27.70
2023-04-27T19:52:18.256Z,27.60
2023-04-27T19:54:56.260Z,27.70
2023-04-27T19:57:26.337Z,27.70
2023-04-27T19:59:56.026Z,27.70
2023-04-27T20:02:25.949Z,27.60
2023-04-27T20:04:56.108Z,27.50
2023-04-27T20:07:26.445Z,27.50
2023-04-27T20:09:56.009Z,27.30
2023-04-27T20:12:44.020Z,27.30
2023-04-27T20:15:16.898Z,27.20
2023-04-27T20:17:47.835Z,27.10
2023-04-27T20:20:18.176Z,27.00
2023-04-27T20:22:47.951Z,26.90
2023-04-27T20:25:17.748Z,26.90
2023-04-27T20:27:47.867Z,27.00
2023-04-27T20:30:17.777Z,26.90
2023-04-27T20:32:47.918Z,27.10
2023-04-27T20:35:17.788Z,27.30
2023-04-27T20:37:48.606Z,27.40
2023-04-27T20:40:19.642Z,27.10
2023-04-27T20:42:50.903Z,26.80
2023-04-27T20:45:21.153Z,26.70
2023-04-27T20:47:50.921Z,27.00
2023-04-27T20:50:20.858Z,27.10
2023-04-27T20:52:50.544Z,27.20
2023-04-27T20:55:20.526Z,26.90
2023-04-27T20:57:50.254Z,27.00
2023-04-27T21:00:20.475Z,27.10
2023-04-27T21:02:50.381Z,27.00
2023-04-27T21:05:20.302Z,27.10
2023-04-27T21:07:49.948Z,27.20
2023-04-27T21:10:20.012Z,27.30
2023-04-27T21:12:49.641Z,27.20
2023-04-27T21:15:19.629Z,27.30
2023-04-27T21:17:49.950Z,27.30
2023-04-27T21:20:20.310Z,27.30
2023-04-27T21:22:49.932Z,27.10
2023-04-27T21:25:22.220Z,27.00
2023-04-27T21:27:53.602Z,26.90
2023-04-27T21:30:23.425Z,26.80
2023-04-27T21:32:53.394Z,27.00
2023-04-27T21:35:23.567Z,27.00
2023-04-27T21:37:53.705Z,27.10
2023-04-27T21:40:23.768Z,27.20
2023-04-27T21:42:57.088Z,27.20
2023-04-27T21:45:27.128Z,27.20
2023-04-27T21:47:57.004Z,27.20
2023-04-27T21:50:27.232Z,27.20
2023-04-27T21:52:57.069Z,27.20
2023-04-27T21:55:27.353Z,27.10
2023-04-27T21:57:56.972Z,27.10
2023-04-27T22:00:27.227Z,27.10
2023-04-27T22:02:57.056Z,27.10
2023-04-27T22:05:30.616Z,27.10
2023-04-27T22:08:00.537Z,27.10
2023-04-27T22:10:30.151Z,27.10
2023-04-27T22:13:05.255Z,27.10
2023-04-27T22:15:44.846Z,27.00
2023-04-27T22:18:15.942Z,26.80
2023-04-27T22:20:46.080Z,26.80
2023-04-27T22:23:15.775Z,26.80
2023-04-27T22:25:45.778Z,26.70
2023-04-27T22:28:15.464Z,26.60
2023-04-27T22:30:45.574Z,26.50
2023-04-27T22:33:15.214Z,26.50
2023-04-27T22:35:45.082Z,26.60
2023-04-27T22:38:14.812Z,26.70
2023-04-27T22:40:44.852Z,26.80
2023-04-27T22:43:14.476Z,26.80
2023-04-27T22:45:45.513Z,26.90
2023-04-27T22:48:15.201Z,26.90
2023-04-27T22:50:45.037Z,26.90
2023-04-27T22:53:14.713Z,27.00
2023-04-27T22:55:44.549Z,26.80
2023-04-27T22:58:14.240Z,26.70
2023-04-27T23:00:44.261Z,26.80
2023-04-27T23:03:14.299Z,26.90
2023-04-27T23:05:44.771Z,26.80
2023-04-27T23:08:14.854Z,26.70
2023-04-27T23:10:44.817Z,26.80
2023-04-27T23:13:14.628Z,26.90
2023-04-27T23:15:44.448Z,26.70
2023-04-27T23:18:14.199Z,26.60
2023-04-27T23:20:44.176Z,26.50
2023-04-27T23:23:13.911Z,26.60
2023-04-27T23:25:43.790Z,26.60
2023-04-27T23:28:13.501Z,26.70
2023-04-27T23:30:43.450Z,26.70
2023-04-27T23:33:13.227Z,26.80
2023-04-27T23:35:43.158Z,26.80
2023-04-27T23:38:12.933Z,26.80
2023-04-27T23:40:42.824Z,26.80
2023-04-27T23:43:13.288Z,26.80
2023-04-27T23:45:50.238Z,26.90
2023-04-27T23:48:20.846Z,26.90
2023-04-27T23:50:50.548Z,27.00
2023-04-27T23:53:20.475Z,27.10
2023-04-27T23:55:50.180Z,27.20
2023-04-27T23:58:20.278Z,27.10
